createdAt,value
2016-05-18T00:00:00.850Z,12.8
2016-05-18T00:00:10.681Z,12.9
2016-05-18T00:00:20.681Z,12.7
2016-05-18T00:00:30.681Z,12.8
2016-05-18T00:00:40.838Z,12.8
2016-05-18T00:00:50.838Z,12.9
2016-05-18T00:01:00.838Z,12.8
2016-05-18T00:01:10.840Z,12.8
2016-05-18T00:01:20.699Z,12.8
2016-05-18T00:01:30.855Z,12.7
2016-05-18T00:01:40.840Z,12.8
2016-05-18T00:01:50.855Z,12.7
2016-05-18T00:02:00.855Z,12.7
2016-05-18T00:02:10.859Z,12.7
2016-05-18T00:02:20.859Z,12.8
2016-05-18T00:02:30.859Z,12.7
2016-05-18T00:02:40.859Z,12.7
2016-05-18T00:02:50.875Z,12.7
2016-05-18T00:03:00.734Z,12.7
2016-05-18T00:03:10.877Z,12.8
2016-05-18T00:03:20.877Z,12.7
2016-05-18T00:03:30.877Z,12.7
2016-05-18T00:03:40.877Z,12.7
2016-05-18T00:03:50.877Z,12.7
2016-05-18T00:04:00.877Z,12.6
2016-05-18T00:04:10.880Z,12.7
2016-05-18T00:04:20.880Z,12.7
2016-05-18T00:04:30.911Z,12.7
2016-05-18T00:04:40.895Z,12.7
2016-05-18T00:04:50.895Z,12.7
2016-05-18T00:05:00.895Z,12.7
2016-05-18T00:05:10.898Z,12.7
2016-05-18T00:05:20.898Z,12.7
2016-05-18T00:05:30.898Z,12.7
2016-05-18T00:05:40.898Z,12.6
2016-05-18T00:05:50.898Z,12.7
2016-05-18T00:06:00.914Z,12.7
2016-05-18T00:06:10.760Z,12.7
2016-05-18T00:06:20.916Z,12.6
2016-05-18T00:06:30.916Z,12.7
2016-05-18T00:06:40.916Z,12.5
2016-05-18T00:06:50.916Z,12.6
2016-05-18T00:07:00.775Z,12.6
2016-05-18T00:07:10.919Z,12.6
2016-05-18T00:07:20.935Z,12.6
2016-05-18T00:07:30.935Z,12.5
2016-05-18T00:07:40.935Z,12.6
2016-05-18T00:07:50.935Z,12.6
2016-05-18T00:08:01.075Z,12.5
2016-05-18T00:08:11.312Z,12.6
2016-05-18T00:08:20.937Z,12.5
2016-05-18T00:08:30.937Z,12.5
2016-05-18T00:08:40.937Z,12.5
2016-05-18T00:08:50.952Z,12.4
2016-05-18T00:09:00.937Z,12.4
2016-05-18T00:09:10.799Z,12.5
2016-05-18T00:09:20.955Z,12.5
2016-05-18T00:09:30.955Z,12.6
2016-05-18T00:09:40.955Z,12.5
2016-05-18T00:09:50.955Z,12.5
2016-05-18T00:10:01.737Z,12.5
2016-05-18T00:10:12.630Z,12.5
2016-05-18T00:10:22.474Z,12.5
2016-05-18T00:10:32.318Z,12.4
2016-05-18T00:10:42.271Z,12.5
2016-05-18T00:10:52.771Z,12.4
2016-05-18T00:11:02.193Z,12.5
2016-05-18T00:11:12.321Z,12.5
2016-05-18T00:11:22.321Z,12.5
2016-05-18T00:11:32.430Z,12.5
2016-05-18T00:11:41.039Z,12.5
2016-05-18T00:11:51.227Z,12.5
2016-05-18T00:12:01.274Z,12.5
2016-05-18T00:12:10.979Z,12.5
2016-05-18T00:12:21.698Z,12.5
2016-05-18T00:12:31.338Z,12.5
2016-05-18T00:12:41.010Z,12.4
2016-05-18T00:12:51.057Z,12.5
2016-05-18T00:13:00.995Z,12.4
2016-05-18T00:13:11.794Z,12.5
2016-05-18T00:13:20.841Z,12.5
2016-05-18T00:13:31.451Z,12.5
2016-05-18T00:13:41.904Z,12.5
2016-05-18T00:13:51.294Z,12.5
2016-05-18T00:14:00.998Z,12.5
2016-05-18T00:14:11.485Z,12.4
2016-05-18T00:14:21.594Z,12.5
2016-05-18T00:14:31.188Z,12.5
2016-05-18T00:14:41.016Z,12.4
2016-05-18T00:14:51.610Z,12.5
2016-05-18T00:15:02.501Z,12.5
2016-05-18T00:15:11.784Z,12.5
2016-05-18T00:15:21.034Z,12.4
2016-05-18T00:15:31.143Z,12.4
2016-05-18T00:15:41.143Z,12.4
2016-05-18T00:15:51.799Z,12.4
2016-05-18T00:16:01.143Z,12.4
2016-05-18T00:16:11.631Z,12.4
2016-05-18T00:16:21.740Z,12.4
2016-05-18T00:16:31.302Z,12.3
2016-05-18T00:16:41.646Z,12.5
2016-05-18T00:16:51.474Z,12.4
2016-05-18T00:17:01.052Z,12.4
2016-05-18T00:17:11.446Z,12.4
2016-05-18T00:17:21.384Z,12.4
2016-05-18T00:17:31.149Z,12.3
2016-05-18T00:17:41.102Z,12.3
2016-05-18T00:17:51.071Z,12.3
2016-05-18T00:18:01.055Z,12.3
2016-05-18T00:18:11.058Z,12.5
2016-05-18T00:18:20.902Z,12.4
2016-05-18T00:18:31.074Z,12.4
2016-05-18T00:18:40.918Z,12.3
2016-05-18T00:18:51.074Z,12.4
2016-05-18T00:19:01.074Z,12.3
2016-05-18T00:19:11.076Z,12.4
2016-05-18T00:19:20.920Z,12.3
2016-05-18T00:19:31.076Z,12.4
2016-05-18T00:19:41.076Z,12.3
2016-05-18T00:19:51.076Z,12.3
2016-05-18T00:20:01.092Z,12.4
2016-05-18T00:20:11.079Z,12.4
2016-05-18T00:20:21.079Z,12.4
2016-05-18T00:20:31.110Z,12.4
2016-05-18T00:20:41.095Z,12.3
2016-05-18T00:20:50.938Z,12.3
2016-05-18T00:21:01.095Z,12.4
2016-05-18T00:21:11.097Z,12.3
2016-05-18T00:21:21.097Z,12.4
2016-05-18T00:21:31.097Z,12.3
2016-05-18T00:21:41.097Z,12.3
2016-05-18T00:21:51.112Z,12.4
2016-05-18T00:22:01.097Z,12.4
2016-05-18T00:22:11.115Z,12.4
2016-05-18T00:22:21.115Z,12.4
2016-05-18T00:22:31.100Z,12.4
2016-05-18T00:22:41.115Z,12.4
2016-05-18T00:22:51.115Z,12.3
2016-05-18T00:23:01.537Z,12.4
2016-05-18T00:23:11.071Z,12.3
2016-05-18T00:23:21.118Z,12.3
2016-05-18T00:23:31.134Z,12.3
2016-05-18T00:23:41.134Z,12.4
2016-05-18T00:23:50.978Z,12.3
2016-05-18T00:24:01.134Z,12.4
2016-05-18T00:24:11.136Z,12.3
2016-05-18T00:24:21.136Z,12.2
2016-05-18T00:24:31.136Z,12.3
2016-05-18T00:24:41.136Z,12.3
2016-05-18T00:24:51.152Z,12.3
2016-05-18T00:25:01.152Z,12.3
2016-05-18T00:25:11.156Z,12.2
2016-05-18T00:25:21.140Z,12.3
2016-05-18T00:25:31.156Z,12.3
2016-05-18T00:25:41.156Z,12.3
2016-05-18T00:25:50.999Z,12.4
2016-05-18T00:26:01.156Z,12.3
2016-05-18T00:26:11.158Z,12.3
2016-05-18T00:26:21.158Z,12.4
2016-05-18T00:26:31.173Z,12.4
2016-05-18T00:26:41.158Z,12.3
2016-05-18T00:26:51.158Z,12.4
2016-05-18T00:27:01.158Z,12.3
2016-05-18T00:27:11.019Z,12.3
2016-05-18T00:27:21.160Z,12.4
2016-05-18T00:27:31.175Z,12.3
2016-05-18T00:27:41.175Z,12.4
2016-05-18T00:27:51.175Z,12.4
2016-05-18T00:28:01.175Z,12.3
2016-05-18T00:28:11.178Z,12.3
2016-05-18T00:28:21.178Z,12.3
2016-05-18T00:28:31.178Z,12.3
2016-05-18T00:28:41.194Z,12.4
2016-05-18T00:28:51.194Z,12.3
2016-05-18T00:29:01.209Z,12.3
2016-05-18T00:29:11.041Z,12.3
2016-05-18T00:29:21.197Z,12.3
2016-05-18T00:29:31.041Z,12.4
2016-05-18T00:29:41.197Z,12.3
2016-05-18T00:29:51.056Z,12.4
2016-05-18T00:30:01.056Z,12.4
2016-05-18T00:30:11.059Z,12.3
2016-05-18T00:30:21.215Z,12.3
2016-05-18T00:30:31.215Z,12.3
2016-05-18T00:30:41.215Z,12.3
2016-05-18T00:30:51.215Z,12.3
2016-05-18T00:31:01.215Z,12.4
2016-05-18T00:31:11.217Z,12.4
2016-05-18T00:31:21.217Z,12.2
2016-05-18T00:31:31.217Z,12.3
2016-05-18T00:31:41.233Z,12.4
2016-05-18T00:31:51.233Z,12.3
2016-05-18T00:32:01.233Z,12.2
2016-05-18T00:32:11.237Z,12.3
2016-05-18T00:32:21.237Z,12.3
2016-05-18T00:32:31.237Z,12.3
2016-05-18T00:32:41.253Z,12.4
2016-05-18T00:32:51.237Z,12.3
2016-05-18T00:33:01.237Z,12.3
2016-05-18T00:33:11.239Z,12.3
2016-05-18T00:33:21.239Z,12.3
2016-05-18T00:33:31.255Z,12.3
2016-05-18T00:33:41.255Z,12.3
2016-05-18T00:33:51.255Z,12.3
2016-05-18T00:34:01.255Z,12.3
2016-05-18T00:34:11.257Z,12.3
2016-05-18T00:34:21.116Z,12.4
2016-05-18T00:34:31.272Z,12.4
2016-05-18T00:34:41.272Z,12.5
2016-05-18T00:34:51.272Z,12.4
2016-05-18T00:35:01.272Z,12.4
2016-05-18T00:35:11.275Z,12.4
2016-05-18T00:35:21.260Z,12.3
2016-05-18T00:35:31.275Z,12.4
2016-05-18T00:35:41.275Z,12.4
2016-05-18T00:35:51.275Z,12.3
2016-05-18T00:36:01.275Z,12.4
2016-05-18T00:36:11.278Z,12.4
2016-05-18T00:36:21.278Z,12.4
2016-05-18T00:36:31.278Z,12.4
2016-05-18T00:36:41.278Z,12.5
2016-05-18T00:36:51.294Z,12.5
2016-05-18T00:37:01.294Z,12.4
2016-05-18T00:37:11.140Z,12.5
2016-05-18T00:37:21.296Z,12.5
2016-05-18T00:37:31.296Z,12.4
2016-05-18T00:37:41.593Z,12.5
2016-05-18T00:37:51.140Z,12.5
2016-05-18T00:38:01.233Z,12.5
2016-05-18T00:38:11.347Z,12.5
2016-05-18T00:38:21.159Z,12.5
2016-05-18T00:38:31.316Z,12.5
2016-05-18T00:38:41.159Z,12.4
2016-05-18T00:38:51.316Z,12.5
2016-05-18T00:39:01.316Z,12.5
2016-05-18T00:39:11.318Z,12.5
2016-05-18T00:39:21.333Z,12.6
2016-05-18T00:39:31.318Z,12.6
2016-05-18T00:39:41.318Z,12.6
2016-05-18T00:39:51.318Z,12.6
2016-05-18T00:40:01.333Z,12.6
2016-05-18T00:40:11.179Z,12.5
2016-05-18T00:40:21.335Z,12.6
2016-05-18T00:40:31.335Z,12.6
2016-05-18T00:40:41.335Z,12.6
2016-05-18T00:40:51.179Z,12.6
2016-05-18T00:41:01.335Z,12.5
2016-05-18T00:41:11.339Z,12.7
2016-05-18T00:41:21.339Z,12.6
2016-05-18T00:41:31.355Z,12.6
2016-05-18T00:41:41.339Z,12.6
2016-05-18T00:41:51.355Z,12.6
2016-05-18T00:42:01.355Z,12.7
2016-05-18T00:42:11.357Z,12.6
2016-05-18T00:42:21.357Z,12.7
2016-05-18T00:42:31.357Z,12.6
2016-05-18T00:42:41.372Z,12.6
2016-05-18T00:42:51.216Z,12.6
2016-05-18T00:43:01.357Z,12.7
2016-05-18T00:43:11.218Z,12.7
2016-05-18T00:43:21.359Z,12.7
2016-05-18T00:43:31.374Z,12.7
2016-05-18T00:43:41.218Z,12.6
2016-05-18T00:43:51.390Z,12.7
2016-05-18T00:44:01.406Z,12.7
2016-05-18T00:44:11.378Z,12.6
2016-05-18T00:44:21.378Z,12.7
2016-05-18T00:44:31.378Z,12.7
2016-05-18T00:44:41.410Z,12.7
2016-05-18T00:44:51.238Z,12.7
2016-05-18T00:45:01.394Z,12.7
2016-05-18T00:45:11.396Z,12.7
2016-05-18T00:45:21.412Z,12.7
2016-05-18T00:45:31.396Z,12.7
2016-05-18T00:45:41.396Z,12.7
2016-05-18T00:45:51.396Z,12.7
2016-05-18T00:46:01.396Z,12.7
2016-05-18T00:46:11.258Z,12.7
2016-05-18T00:46:21.258Z,12.7
2016-05-18T00:46:31.258Z,12.7
2016-05-18T00:46:41.430Z,12.8
2016-05-18T00:46:51.415Z,12.7
2016-05-18T00:47:01.415Z,12.8
2016-05-18T00:47:11.276Z,12.8
2016-05-18T00:47:21.417Z,12.7
2016-05-18T00:47:31.417Z,12.7
2016-05-18T00:47:41.417Z,12.7
2016-05-18T00:47:51.432Z,12.7
2016-05-18T00:48:01.417Z,12.7
2016-05-18T00:48:11.435Z,12.7
2016-05-18T00:48:21.435Z,12.7
2016-05-18T00:48:31.435Z,12.7
2016-05-18T00:48:41.435Z,12.8
2016-05-18T00:48:51.435Z,12.7
2016-05-18T00:49:01.435Z,12.8
2016-05-18T00:49:11.437Z,12.7
2016-05-18T00:49:21.437Z,12.8
2016-05-18T00:49:31.297Z,12.8
2016-05-18T00:49:41.453Z,12.7
2016-05-18T00:49:51.453Z,12.7
2016-05-18T00:50:01.453Z,12.7
2016-05-18T00:50:11.301Z,12.7
2016-05-18T00:50:21.301Z,12.7
2016-05-18T00:50:31.457Z,12.8
2016-05-18T00:50:41.457Z,12.7
2016-05-18T00:50:51.457Z,12.8
2016-05-18T00:51:01.457Z,12.8
2016-05-18T00:51:11.475Z,12.8
2016-05-18T00:51:21.475Z,12.7
2016-05-18T00:51:31.475Z,12.8
2016-05-18T00:51:41.475Z,12.8
2016-05-18T00:51:51.475Z,12.7
2016-05-18T00:52:01.475Z,12.8
2016-05-18T00:52:11.478Z,12.8
2016-05-18T00:52:21.337Z,12.9
2016-05-18T00:52:31.478Z,12.7
2016-05-18T00:52:41.634Z,12.8
2016-05-18T00:52:51.478Z,12.8
2016-05-18T00:53:01.337Z,12.8
2016-05-18T00:53:11.496Z,12.8
2016-05-18T00:53:21.699Z,12.8
2016-05-18T00:53:31.512Z,12.8
2016-05-18T00:53:41.496Z,12.8
2016-05-18T00:53:51.496Z,12.8
2016-05-18T00:54:01.496Z,12.9
2016-05-18T00:54:11.498Z,12.8
2016-05-18T00:54:21.498Z,12.8
2016-05-18T00:54:31.498Z,12.8
2016-05-18T00:54:41.514Z,12.8
2016-05-18T00:54:51.514Z,12.9
2016-05-18T00:55:01.514Z,12.8
2016-05-18T00:55:11.517Z,12.8
2016-05-18T00:55:21.361Z,12.8
2016-05-18T00:55:31.517Z,12.9
2016-05-18T00:55:41.376Z,12.8
2016-05-18T00:55:51.532Z,12.8
2016-05-18T00:56:01.376Z,12.8
2016-05-18T00:56:11.534Z,12.9
2016-05-18T00:56:21.534Z,12.9
2016-05-18T00:56:31.378Z,12.8
2016-05-18T00:56:41.534Z,12.9
2016-05-18T00:56:51.534Z,12.9
2016-05-18T00:57:01.534Z,12.9
2016-05-18T00:57:11.537Z,12.9
2016-05-18T00:57:21.537Z,12.9
2016-05-18T00:57:31.537Z,12.9
2016-05-18T00:57:41.397Z,12.9
2016-05-18T00:57:51.553Z,12.9
2016-05-18T00:58:01.553Z,12.9
2016-05-18T00:58:11.572Z,12.9
2016-05-18T00:58:21.556Z,13
2016-05-18T00:58:31.431Z,12.9
2016-05-18T00:58:41.572Z,13
2016-05-18T00:58:51.556Z,12.9
2016-05-18T00:59:01.572Z,12.9
2016-05-18T00:59:11.418Z,12.9
2016-05-18T00:59:21.575Z,13
2016-05-18T00:59:31.575Z,12.9
2016-05-18T00:59:41.575Z,12.9
2016-05-18T00:59:51.590Z,12.9
2016-05-18T01:00:01.575Z,13
2016-05-18T01:00:11.577Z,12.9
2016-05-18T01:00:21.436Z,12.9
2016-05-18T01:00:31.577Z,12.9
2016-05-18T01:00:41.577Z,13
2016-05-18T01:00:51.592Z,13.1
2016-05-18T01:01:01.592Z,13
2016-05-18T01:01:11.439Z,13.1
2016-05-18T01:01:21.611Z,13
2016-05-18T01:01:31.595Z,13.1
2016-05-18T01:01:41.595Z,13.1
2016-05-18T01:01:51.595Z,13.1
2016-05-18T01:02:01.595Z,13.1
2016-05-18T01:02:11.458Z,13.1
2016-05-18T01:02:21.598Z,13
2016-05-18T01:02:31.598Z,13
2016-05-18T01:02:41.614Z,13.1
2016-05-18T01:02:51.614Z,13.1
2016-05-18T01:03:01.630Z,13.1
2016-05-18T01:03:11.616Z,13.1
2016-05-18T01:03:21.616Z,13.1
2016-05-18T01:03:31.616Z,13.1
2016-05-18T01:03:41.475Z,13.1
2016-05-18T01:03:51.632Z,13.1
2016-05-18T01:04:01.632Z,13.1
2016-05-18T01:04:11.619Z,13.1
2016-05-18T01:04:21.635Z,13.1
2016-05-18T01:04:31.635Z,13.1
2016-05-18T01:04:41.635Z,13.1
2016-05-18T01:04:51.635Z,13.2
2016-05-18T01:05:01.635Z,13.1
2016-05-18T01:05:11.653Z,13.1
2016-05-18T01:05:21.638Z,13.1
2016-05-18T01:05:31.638Z,13.1
2016-05-18T01:05:41.497Z,13.2
2016-05-18T01:05:51.653Z,13.1
2016-05-18T01:06:01.653Z,13.1
2016-05-18T01:06:11.641Z,13.2
2016-05-18T01:06:21.656Z,13.1
2016-05-18T01:06:31.656Z,13.2
2016-05-18T01:06:41.516Z,13.2
2016-05-18T01:06:51.516Z,13.2
2016-05-18T01:07:01.656Z,13.2
2016-05-18T01:07:11.674Z,13.2
2016-05-18T01:07:21.658Z,13.2
2016-05-18T01:07:31.861Z,13.2
2016-05-18T01:07:41.689Z,13.2
2016-05-18T01:07:52.611Z,13.2
2016-05-18T01:08:01.674Z,13.2
2016-05-18T01:08:11.677Z,13.2
2016-05-18T01:08:21.677Z,13.2
2016-05-18T01:08:31.677Z,13.2
2016-05-18T01:08:41.677Z,13.3
2016-05-18T01:08:51.692Z,13.3
2016-05-18T01:09:01.692Z,13.2
2016-05-18T01:09:11.695Z,13.3
2016-05-18T01:09:21.695Z,13.2
2016-05-18T01:09:31.695Z,13.2
2016-05-18T01:09:41.695Z,13.2
2016-05-18T01:09:51.695Z,13.3
2016-05-18T01:10:01.695Z,13.2
2016-05-18T01:10:11.713Z,13.3
2016-05-18T01:10:21.697Z,13.2
2016-05-18T01:10:31.697Z,13.3
2016-05-18T01:10:41.572Z,13.3
2016-05-18T01:10:51.713Z,13.3
2016-05-18T01:11:01.713Z,13.3
2016-05-18T01:11:11.716Z,13.2
2016-05-18T01:11:21.716Z,13.3
2016-05-18T01:11:31.732Z,13.3
2016-05-18T01:11:41.716Z,13.3
2016-05-18T01:11:51.575Z,13.3
2016-05-18T01:12:01.716Z,13.2
2016-05-18T01:12:11.734Z,13.3
2016-05-18T01:12:21.734Z,13.3
2016-05-18T01:12:31.734Z,13.2
2016-05-18T01:12:41.734Z,13.4
2016-05-18T01:12:51.734Z,13.3
2016-05-18T01:13:01.734Z,13.3
2016-05-18T01:13:11.738Z,13.2
2016-05-18T01:13:21.753Z,13.3
2016-05-18T01:13:31.753Z,13.4
2016-05-18T01:13:41.738Z,13.3
2016-05-18T01:13:51.753Z,13.3
2016-05-18T01:14:01.597Z,13.3
2016-05-18T01:14:11.755Z,13.3
2016-05-18T01:14:21.755Z,13.3
2016-05-18T01:14:31.615Z,13.3
2016-05-18T01:14:41.615Z,13.3
2016-05-18T01:14:51.755Z,13.2
2016-05-18T01:15:01.771Z,13.3
2016-05-18T01:15:11.773Z,13.4
2016-05-18T01:15:21.757Z,13.3
2016-05-18T01:15:31.773Z,13.3
2016-05-18T01:15:41.773Z,13.3
2016-05-18T01:15:51.773Z,13.3
2016-05-18T01:16:01.773Z,13.2
2016-05-18T01:16:11.776Z,13.3
2016-05-18T01:16:21.776Z,13.3
2016-05-18T01:16:31.776Z,13.3
2016-05-18T01:16:41.776Z,13.4
2016-05-18T01:16:51.635Z,13.3
2016-05-18T01:17:01.776Z,13.3
2016-05-18T01:17:11.795Z,13.4
2016-05-18T01:17:21.795Z,13.3
2016-05-18T01:17:31.810Z,13.3
2016-05-18T01:17:41.795Z,13.3
2016-05-18T01:17:51.795Z,13.4
2016-05-18T01:18:01.654Z,13.3
2016-05-18T01:18:11.798Z,13.2
2016-05-18T01:18:21.813Z,13.4
2016-05-18T01:18:31.813Z,13.4
2016-05-18T01:18:41.813Z,13.3
2016-05-18T01:18:51.829Z,13.4
2016-05-18T01:19:01.813Z,13.3
2016-05-18T01:19:11.815Z,13.4
2016-05-18T01:19:21.815Z,13.4
2016-05-18T01:19:31.815Z,13.4
2016-05-18T01:19:41.815Z,13.4
2016-05-18T01:19:51.815Z,13.3
2016-05-18T01:20:01.675Z,13.4
2016-05-18T01:20:11.835Z,13.4
2016-05-18T01:20:21.835Z,13.4
2016-05-18T01:20:31.835Z,13.4
2016-05-18T01:20:41.835Z,13.3
2016-05-18T01:20:51.835Z,13.3
2016-05-18T01:21:01.694Z,13.4
2016-05-18T01:21:11.852Z,13.4
2016-05-18T01:21:21.852Z,13.3
2016-05-18T01:21:31.852Z,13.4
2016-05-18T01:21:41.852Z,13.4
2016-05-18T01:21:51.852Z,13.4
2016-05-18T01:22:01.852Z,13.4
2016-05-18T01:22:11.855Z,13.4
2016-05-18T01:22:21.855Z,13.4
2016-05-18T01:22:32.137Z,13.4
2016-05-18T01:22:41.715Z,13.4
2016-05-18T01:22:52.230Z,13.4
2016-05-18T01:23:01.871Z,13.4
2016-05-18T01:23:12.404Z,13.4
2016-05-18T01:23:22.217Z,13.4
2016-05-18T01:23:31.717Z,13.4
2016-05-18T01:23:41.873Z,13.4
2016-05-18T01:23:51.873Z,13.4
2016-05-18T01:24:01.873Z,13.4
2016-05-18T01:24:11.734Z,13.4
2016-05-18T01:24:21.875Z,13.4
2016-05-18T01:24:31.891Z,13.3
2016-05-18T01:24:41.891Z,13.4
2016-05-18T01:24:51.891Z,13.4
2016-05-18T01:25:01.891Z,13.4
2016-05-18T01:25:11.895Z,13.4
2016-05-18T01:25:21.895Z,13.4
2016-05-18T01:25:31.895Z,13.3
2016-05-18T01:25:41.895Z,13.4
2016-05-18T01:25:51.910Z,13.4
2016-05-18T01:26:01.910Z,13.4
2016-05-18T01:26:11.912Z,13.4
2016-05-18T01:26:21.756Z,13.4
2016-05-18T01:26:31.912Z,13.4
2016-05-18T01:26:41.912Z,13.4
2016-05-18T01:26:51.912Z,13.4
2016-05-18T01:27:01.912Z,13.4
2016-05-18T01:27:11.915Z,13.4
2016-05-18T01:27:21.931Z,13.4
2016-05-18T01:27:31.915Z,13.4
2016-05-18T01:27:41.931Z,13.4
2016-05-18T01:27:51.931Z,13.4
2016-05-18T01:28:01.775Z,13.4
2016-05-18T01:28:11.934Z,13.4
2016-05-18T01:28:21.934Z,13.4
2016-05-18T01:28:31.934Z,13.4
2016-05-18T01:28:41.950Z,13.5
2016-05-18T01:28:51.950Z,13.4
2016-05-18T01:29:01.950Z,13.4
2016-05-18T01:29:11.952Z,13.4
2016-05-18T01:29:21.952Z,13.5
2016-05-18T01:29:31.952Z,13.4
2016-05-18T01:29:41.795Z,13.4
2016-05-18T01:29:51.952Z,13.4
2016-05-18T01:30:01.952Z,13.4
2016-05-18T01:30:11.955Z,13.4
2016-05-18T01:30:21.955Z,13.5
2016-05-18T01:30:31.955Z,13.4
2016-05-18T01:30:41.970Z,13.4
2016-05-18T01:30:51.955Z,13.4
2016-05-18T01:31:01.955Z,13.4
2016-05-18T01:31:11.972Z,13.4
2016-05-18T01:31:21.972Z,13.4
2016-05-18T01:31:31.972Z,13.5
2016-05-18T01:31:41.816Z,13.4
2016-05-18T01:31:51.972Z,13.4
2016-05-18T01:32:01.988Z,13.4
2016-05-18T01:32:11.976Z,13.4
2016-05-18T01:32:21.992Z,13.4
2016-05-18T01:32:31.976Z,13.4
2016-05-18T01:32:41.992Z,13.4
2016-05-18T01:32:51.992Z,13.4
2016-05-18T01:33:01.992Z,13.4
2016-05-18T01:33:11.994Z,13.4
2016-05-18T01:33:21.994Z,13.4
2016-05-18T01:33:32.009Z,13.4
2016-05-18T01:33:42.009Z,13.4
2016-05-18T01:33:51.853Z,13.4
2016-05-18T01:34:02.009Z,13.4
2016-05-18T01:34:12.012Z,13.4
2016-05-18T01:34:22.012Z,13.4
2016-05-18T01:34:32.012Z,13.4
2016-05-18T01:34:42.012Z,13.4
2016-05-18T01:34:52.012Z,13.4
2016-05-18T01:35:02.028Z,13.5
2016-05-18T01:35:12.014Z,13.4
2016-05-18T01:35:22.030Z,13.5
2016-05-18T01:35:32.030Z,13.3
2016-05-18T01:35:42.030Z,13.4
2016-05-18T01:35:52.030Z,13.5
2016-05-18T01:36:02.030Z,13.4
2016-05-18T01:36:12.033Z,13.4
2016-05-18T01:36:21.877Z,13.4
2016-05-18T01:36:32.033Z,13.4
2016-05-18T01:36:42.049Z,13.5
2016-05-18T01:36:51.892Z,13.5
2016-05-18T01:37:02.049Z,13.4
2016-05-18T01:37:12.052Z,13.4
2016-05-18T01:37:22.052Z,13.4
2016-05-18T01:37:32.052Z,13.4
2016-05-18T01:37:42.286Z,13.5
2016-05-18T01:37:52.395Z,13.4
2016-05-18T01:38:02.052Z,13.4
2016-05-18T01:38:12.069Z,13.4
2016-05-18T01:38:22.069Z,13.4
2016-05-18T01:38:32.288Z,13.4
2016-05-18T01:38:41.913Z,13.4
2016-05-18T01:38:52.069Z,13.4
2016-05-18T01:39:02.069Z,13.4
2016-05-18T01:39:12.072Z,13.4
2016-05-18T01:39:22.104Z,13.4
2016-05-18T01:39:32.072Z,13.4
2016-05-18T01:39:42.072Z,13.4
2016-05-18T01:39:52.072Z,13.4
2016-05-18T01:40:02.072Z,13.4
2016-05-18T01:40:12.091Z,13.4
2016-05-18T01:40:22.075Z,13.4
2016-05-18T01:40:31.935Z,13.5
2016-05-18T01:40:42.091Z,13.5
2016-05-18T01:40:52.091Z,13.4
2016-05-18T01:41:02.091Z,13.4
2016-05-18T01:41:12.094Z,13.4
2016-05-18T01:41:22.094Z,13.4
2016-05-18T01:41:32.110Z,13.3
2016-05-18T01:41:42.110Z,13.4
2016-05-18T01:41:52.110Z,13.5
2016-05-18T01:42:02.110Z,13.4
2016-05-18T01:42:12.112Z,13.4
2016-05-18T01:42:22.112Z,13.4
2016-05-18T01:42:32.112Z,13.4
2016-05-18T01:42:42.112Z,13.4
2016-05-18T01:42:52.112Z,13.4
2016-05-18T01:43:02.112Z,13.4
2016-05-18T01:43:12.130Z,13.5
2016-05-18T01:43:22.130Z,13.5
2016-05-18T01:43:32.130Z,13.5
2016-05-18T01:43:42.130Z,13.4
2016-05-18T01:43:51.974Z,13.4
2016-05-18T01:44:01.974Z,13.4
2016-05-18T01:44:12.133Z,13.4
2016-05-18T01:44:22.133Z,13.5
2016-05-18T01:44:32.133Z,13.4
2016-05-18T01:44:42.133Z,13.4
2016-05-18T01:44:52.149Z,13.4
2016-05-18T01:45:02.149Z,13.4
2016-05-18T01:45:12.151Z,13.4
2016-05-18T01:45:22.151Z,13.5
2016-05-18T01:45:32.151Z,13.4
2016-05-18T01:45:42.151Z,13.4
2016-05-18T01:45:52.151Z,13.4
2016-05-18T01:46:02.151Z,13.5
2016-05-18T01:46:12.169Z,13.4
2016-05-18T01:46:22.185Z,13.4
2016-05-18T01:46:32.169Z,13.4
2016-05-18T01:46:42.169Z,13.4
2016-05-18T01:46:52.169Z,13.5
2016-05-18T01:47:02.169Z,13.4
2016-05-18T01:47:12.172Z,13.5
2016-05-18T01:47:22.188Z,13.4
2016-05-18T01:47:32.172Z,13.4
2016-05-18T01:47:42.188Z,13.4
2016-05-18T01:47:52.188Z,13.4
2016-05-18T01:48:02.188Z,13.4
2016-05-18T01:48:12.207Z,13.4
2016-05-18T01:48:22.191Z,13.4
2016-05-18T01:48:32.207Z,13.4
2016-05-18T01:48:42.191Z,13.4
2016-05-18T01:48:52.207Z,13.5
2016-05-18T01:49:02.207Z,13.4
2016-05-18T01:49:12.193Z,13.4
2016-05-18T01:49:22.209Z,13.4
2016-05-18T01:49:32.209Z,13.4
2016-05-18T01:49:42.209Z,13.4
2016-05-18T01:49:52.052Z,13.4
2016-05-18T01:50:02.209Z,13.4
2016-05-18T01:50:12.212Z,13.4
2016-05-18T01:50:22.212Z,13.4
2016-05-18T01:50:32.212Z,13.4
2016-05-18T01:50:42.227Z,13.4
2016-05-18T01:50:52.227Z,13.3
2016-05-18T01:51:02.071Z,13.4
2016-05-18T01:51:12.245Z,13.5
2016-05-18T01:51:22.073Z,13.4
2016-05-18T01:51:32.229Z,13.4
2016-05-18T01:51:42.229Z,13.5
2016-05-18T01:51:52.245Z,13.4
2016-05-18T01:52:02.229Z,13.4
2016-05-18T01:52:12.248Z,13.4
2016-05-18T01:52:22.232Z,13.4
2016-05-18T01:52:32.248Z,13.3
2016-05-18T01:52:42.279Z,13.3
2016-05-18T01:52:52.779Z,13.3
2016-05-18T01:53:02.701Z,13.4
2016-05-18T01:53:12.626Z,13.3
2016-05-18T01:53:22.532Z,13.3
2016-05-18T01:53:32.267Z,13.3
2016-05-18T01:53:42.251Z,13.4
2016-05-18T01:53:52.267Z,13.4
2016-05-18T01:54:02.267Z,13.3
2016-05-18T01:54:12.253Z,13.4
2016-05-18T01:54:22.269Z,13.3
2016-05-18T01:54:32.269Z,13.3
2016-05-18T01:54:42.269Z,13.3
2016-05-18T01:54:52.269Z,13.3
2016-05-18T01:55:02.269Z,13.3
2016-05-18T01:55:12.287Z,13.3
2016-05-18T01:55:22.287Z,13.2
2016-05-18T01:55:32.287Z,13.2
2016-05-18T01:55:42.272Z,13.3
2016-05-18T01:55:52.131Z,13.3
2016-05-18T01:56:02.287Z,13.2
2016-05-18T01:56:12.134Z,13.2
2016-05-18T01:56:22.290Z,13.2
2016-05-18T01:56:32.290Z,13.2
2016-05-18T01:56:42.306Z,13.2
2016-05-18T01:56:52.306Z,13.2
2016-05-18T01:57:02.290Z,13.2
2016-05-18T01:57:12.293Z,13.2
2016-05-18T01:57:22.309Z,13.3
2016-05-18T01:57:32.309Z,13.2
2016-05-18T01:57:42.168Z,13.1
2016-05-18T01:57:52.168Z,13.2
2016-05-18T01:58:02.309Z,13.2
2016-05-18T01:58:12.311Z,13.2
2016-05-18T01:58:22.170Z,13.1
2016-05-18T01:58:32.326Z,13.1
2016-05-18T01:58:42.170Z,13.1
2016-05-18T01:58:52.342Z,13.1
2016-05-18T01:59:02.326Z,13.1
2016-05-18T01:59:12.329Z,13
2016-05-18T01:59:22.189Z,13.2
2016-05-18T01:59:32.329Z,13.1
2016-05-18T01:59:42.329Z,13.1
2016-05-18T01:59:52.345Z,13.1
2016-05-18T02:00:02.345Z,13.1
2016-05-18T02:00:12.348Z,13.1
2016-05-18T02:00:22.348Z,13.1
2016-05-18T02:00:32.348Z,13.1
2016-05-18T02:00:42.348Z,13.1
2016-05-18T02:00:52.348Z,13.1
2016-05-18T02:01:02.207Z,13.1
2016-05-18T02:01:12.350Z,13.1
2016-05-18T02:01:22.366Z,13.1
2016-05-18T02:01:32.350Z,13.1
2016-05-18T02:01:42.366Z,13
2016-05-18T02:01:52.366Z,13.1
2016-05-18T02:02:02.366Z,13.1
2016-05-18T02:02:12.370Z,13
2016-05-18T02:02:22.370Z,13
2016-05-18T02:02:32.370Z,13.1
2016-05-18T02:02:42.370Z,13
2016-05-18T02:02:52.370Z,13
2016-05-18T02:03:02.370Z,13.1
2016-05-18T02:03:12.372Z,13
2016-05-18T02:03:22.403Z,13
2016-05-18T02:03:32.387Z,13
2016-05-18T02:03:42.387Z,13
2016-05-18T02:03:52.387Z,13
2016-05-18T02:04:02.387Z,13
2016-05-18T02:04:12.233Z,12.9
2016-05-18T02:04:22.405Z,12.9
2016-05-18T02:04:32.389Z,13
2016-05-18T02:04:42.249Z,13
2016-05-18T02:04:52.405Z,13
2016-05-18T02:05:02.249Z,13
2016-05-18T02:05:12.408Z,12.9
2016-05-18T02:05:22.408Z,12.9
2016-05-18T02:05:32.408Z,12.9
2016-05-18T02:05:42.424Z,12.9
2016-05-18T02:05:52.424Z,13
2016-05-18T02:06:02.408Z,12.9
2016-05-18T02:06:12.427Z,12.9
2016-05-18T02:06:22.427Z,12.9
2016-05-18T02:06:32.411Z,12.9
2016-05-18T02:06:42.427Z,13
2016-05-18T02:06:52.270Z,12.9
2016-05-18T02:07:02.427Z,13
2016-05-18T02:07:12.429Z,13
2016-05-18T02:07:22.429Z,12.9
2016-05-18T02:07:32.288Z,13
2016-05-18T02:07:42.429Z,13
2016-05-18T02:07:52.694Z,13
2016-05-18T02:08:02.788Z,12.9
2016-05-18T02:08:12.307Z,12.9
2016-05-18T02:08:22.338Z,13
2016-05-18T02:08:32.619Z,12.9
2016-05-18T02:08:42.447Z,12.9
2016-05-18T02:08:52.447Z,12.9
2016-05-18T02:09:02.447Z,12.9
2016-05-18T02:09:12.466Z,12.9
2016-05-18T02:09:22.466Z,12.9
2016-05-18T02:09:32.450Z,12.9
2016-05-18T02:09:42.450Z,13
2016-05-18T02:09:52.466Z,13
2016-05-18T02:10:02.466Z,12.9
2016-05-18T02:10:12.468Z,12.9
2016-05-18T02:10:22.468Z,12.9
2016-05-18T02:10:32.468Z,12.9
2016-05-18T02:10:42.468Z,13
2016-05-18T02:10:52.468Z,13
2016-05-18T02:11:02.483Z,12.9
2016-05-18T02:11:12.487Z,12.9
2016-05-18T02:11:22.487Z,12.9
2016-05-18T02:11:32.487Z,12.9
2016-05-18T02:11:42.487Z,13
2016-05-18T02:11:52.487Z,12.9
2016-05-18T02:12:02.487Z,12.9
2016-05-18T02:12:12.489Z,13
2016-05-18T02:12:22.489Z,12.9
2016-05-18T02:12:32.505Z,12.9
2016-05-18T02:12:42.505Z,12.9
2016-05-18T02:12:52.521Z,12.9
2016-05-18T02:13:02.364Z,12.9
2016-05-18T02:13:12.507Z,12.9
2016-05-18T02:13:22.538Z,12.9
2016-05-18T02:13:32.507Z,12.9